Time;durP1;ratioP1;P1;durP2;ratioP2;P2;SDS_P1;SDS_P2;PMS_P1;PMS_P2;Temp;Humidity;BMP_temperature;BMP_pressure;BME280_temperature;BME280_humidity;BME280_pressure;Samples;Min_cycle;Max_cycle;Signal;HPM_P1;HPM_P2
2024/02/15 00:03:08;;;;;;;23.60;14.80;;;;;;;5.85;80.09;100270.77;217190;1258;141166;-71
2024/02/15 00:08:15;;;;;;;25.60;15.10;;;;;;;5.87;80.23;100275.96;216925;1257;140251;-70
2024/02/15 00:13:19;;;;;;;25.50;15.30;;;;;;;5.90;80.87;100279.59;216904;1257;139980;-70
2024/02/15 00:18:24;;;;;;;26.20;15.10;;;;;;;5.91;80.88;100276.23;217688;1257;140687;-71
2024/02/15 00:23:28;;;;;;;37.30;18.40;;;;;;;5.95;81.24;100282.33;216868;1260;141128;-70
2024/02/15 00:28:34;;;;;;;22.10;13.70;;;;;;;5.97;81.24;100281.51;216995;1257;140971;-68
2024/02/15 00:33:38;;;;;;;24.00;14.50;;;;;;;5.99;81.02;100285.44;216733;1257;141103;-68
2024/02/15 00:38:43;;;;;;;22.00;14.80;;;;;;;6.02;81.50;100281.19;216984;1258;140735;-72
2024/02/15 00:43:47;;;;;;;28.50;16.50;;;;;;;6.01;81.32;100280.77;216974;1257;141380;-69
2024/02/15 00:48:51;;;;;;;31.20;17.90;;;;;;;6.00;82.26;100289.59;217024;1259;140190;-69
2024/02/15 00:53:55;;;;;;;25.10;16.10;;;;;;;6.00;82.10;100288.49;217332;1257;140642;-68
2024/02/15 00:59:03;;;;;;;26.70;16.00;;;;;;;6.00;82.69;100291.05;217563;1259;140014;-69
2024/02/15 01:04:07;;;;;;;30.10;15.60;;;;;;;5.96;82.81;100287.84;217746;1261;142059;-69
2024/02/15 01:09:12;;;;;;;22.30;14.20;;;;;;;5.94;82.80;100286.85;219789;1257;141865;-71
2024/02/15 01:14:16;;;;;;;27.50;16.10;;;;;;;5.92;83.59;100281.02;218093;1261;140515;-70
2024/02/15 01:19:21;;;;;;;28.10;16.10;;;;;;;5.93;83.68;100283.02;219066;1257;140317;-71
2024/02/15 01:24:25;;;;;;;30.70;15.80;;;;;;;5.92;83.94;100280.89;217447;1260;140187;-70
2024/02/15 01:29:29;;;;;;;23.70;15.80;;;;;;;5.88;84.19;100274.33;216833;1257;141530;-72
2024/02/15 01:34:33;;;;;;;28.20;15.80;;;;;;;5.82;84.59;100268.27;217134;1258;140202;-71
2024/02/15 01:40:01;;;;;;;27.00;18.10;;;;;;;5.80;84.75;100260.45;218452;1257;141270;-72
2024/02/15 01:45:06;;;;;;;21.60;15.30;;;;;;;5.77;85.36;100250.17;216620;1258;140036;-70
2024/02/15 01:50:12;;;;;;;32.70;19.40;;;;;;;5.73;85.52;100245.27;216793;1257;140047;-73
2024/02/15 01:55:18;;;;;;;20.30;14.20;;;;;;;5.72;85.53;100238.37;216814;1258;140448;-70
2024/02/15 02:00:24;;;;;;;29.20;18.10;;;;;;;5.71;86.32;100232.83;217775;1259;140251;-70
2024/02/15 02:05:30;;;;;;;27.70;18.50;;;;;;;5.68;86.52;100229.70;217053;1257;140567;-71
2024/02/15 02:10:39;;;;;;;;;;;;;;;5.69;86.72;100228.86;216788;1257;140351;-72
2024/02/15 02:15:44;;;;;;;26.60;17.60;;;;;;;5.68;87.05;100229.17;217813;1258;127028;-71
2024/02/15 02:20:48;;;;;;;27.90;18.90;;;;;;;5.70;87.22;100237.63;216735;1257;139840;-70
2024/02/15 02:25:55;;;;;;;27.10;17.70;;;;;;;5.71;87.62;100238.68;216860;1257;140690;-69
2024/02/15 02:30:59;;;;;;;21.00;15.40;;;;;;;5.72;87.42;100242.23;217618;1259;140007;-73
2024/02/15 02:36:09;;;;;;;27.20;17.60;;;;;;;5.73;87.84;100244.73;216833;1260;140529;-72
2024/02/15 02:41:14;;;;;;;30.60;20.00;;;;;;;5.73;88.00;100239.65;216903;1260;140105;-71
2024/02/15 02:46:21;;;;;;;33.60;20.40;;;;;;;5.73;88.11;100242.53;217306;1259;140728;-72
2024/02/15 02:51:26;;;;;;;31.00;19.30;;;;;;;5.75;88.57;100247.84;217862;1257;140301;-71
2024/02/15 02:56:32;;;;;;;32.40;20.20;;;;;;;5.78;88.72;100245.27;217277;1257;140679;-72
2024/02/15 03:01:36;;;;;;;32.80;22.60;;;;;;;5.81;88.94;100247.19;217497;1257;141440;-71
2024/02/15 03:06:42;;;;;;;36.10;21.80;;;;;;;5.84;89.22;100246.17;219168;1257;141957;-70
2024/02/15 03:11:46;;;;;;;24.90;14.00;;;;;;;5.87;88.93;100245.02;217345;1260;141369;-69
2024/02/15 03:16:50;;;;;;;35.70;22.20;;;;;;;5.87;89.27;100243.65;219211;1259;140185;-70
2024/02/15 03:21:55;;;;;;;29.30;19.30;;;;;;;5.91;88.81;100249.66;217002;1261;140182;-69
2024/02/15 03:26:59;;;;;;;22.80;16.70;;;;;;;5.91;89.50;100246.20;217036;1260;140039;-69
2024/02/15 03:32:05;;;;;;;31.60;18.60;;;;;;;5.88;89.33;100244.48;217857;1260;140334;-69
2024/02/15 03:37:10;;;;;;;30.50;19.60;;;;;;;5.90;89.52;100250.45;218246;1258;140489;-70
2024/02/15 03:42:15;;;;;;;26.30;17.70;;;;;;;5.93;89.97;100248.13;217694;1261;140020;-69
2024/02/15 03:47:19;;;;;;;31.30;21.00;;;;;;;5.95;89.93;100245.21;217330;1258;140303;-71
2024/02/15 03:52:23;;;;;;;28.40;18.50;;;;;;;5.99;90.08;100242.47;217249;1260;140204;-69
2024/02/15 03:57:32;;;;;;;;;;;;;;;5.99;90.01;100241.86;216951;1260;139920;-69
2024/02/15 04:02:37;;;;;;;29.50;19.00;;;;;;;5.97;90.27;100246.16;218186;1260;127131;-69
2024/02/15 04:07:41;;;;;;;28.00;17.60;;;;;;;5.98;89.99;100248.00;217390;1260;140238;-69
2024/02/15 04:12:46;;;;;;;30.50;18.80;;;;;;;5.98;90.24;100244.87;217249;1259;140611;-69
2024/02/15 04:17:55;;;;;;;28.20;17.00;;;;;;;5.96;90.43;100249.58;219320;1260;140287;-69
2024/02/15 04:23:01;;;;;;;26.00;18.00;;;;;;;5.97;90.05;100244.41;217068;1260;140885;-69
2024/02/15 04:28:06;;;;;;;26.70;16.70;;;;;;;5.99;90.29;100242.07;216714;1260;141966;-71
2024/02/15 04:33:11;;;;;;;28.50;19.80;;;;;;;5.98;90.72;100242.35;216778;1257;139900;-69
2024/02/15 04:38:18;;;;;;;25.10;18.00;;;;;;;6.00;90.61;100242.09;216419;1261;633915;-69
2024/02/15 04:43:24;;;;;;;22.90;17.60;;;;;;;6.01;90.80;100238.09;216787;1260;139950;-70
2024/02/15 04:48:30;;;;;;;27.40;16.70;;;;;;;6.01;90.86;100241.40;217945;1260;141470;-69
2024/02/15 04:53:36;;;;;;;21.70;17.00;;;;;;;6.03;90.98;100246.46;217821;1260;140312;-71
2024/02/15 04:58:47;;;;;;;28.60;17.20;;;;;;;6.05;90.66;100249.93;216743;1261;141949;-69
2024/02/15 05:03:51;;;;;;;27.40;19.00;;;;;;;6.06;90.82;100251.21;219695;1257;140594;-70
2024/02/15 05:08:57;;;;;;;28.90;17.30;;;;;;;6.08;91.06;100251.35;217976;1262;140619;-69
2024/02/15 05:14:02;;;;;;;27.30;19.10;;;;;;;6.11;91.19;100252.26;218784;1258;140903;-70
2024/02/15 05:19:07;;;;;;;26.10;17.70;;;;;;;6.13;90.93;100249.48;217288;1260;139976;-67
2024/02/15 05:24:16;;;;;;;28.00;16.90;;;;;;;6.13;91.11;100249.27;218420;1261;141248;-68
2024/02/15 05:29:23;;;;;;;27.30;20.60;;;;;;;6.13;90.82;100251.07;217895;1261;140798;-68
2024/02/15 05:34:29;;;;;;;28.10;19.50;;;;;;;6.14;90.98;100256.77;216717;1261;152066;-69
2024/02/15 05:39:34;;;;;;;35.60;20.60;;;;;;;6.17;91.07;100263.45;217087;1260;140095;-72
2024/02/15 05:44:38;;;;;;;27.60;20.20;;;;;;;6.21;91.27;100267.90;216988;1262;140395;-74
2024/02/15 05:49:47;;;;;;;28.10;19.30;;;;;;;6.23;91.56;100274.45;216603;1261;140796;-76
2024/02/15 05:54:51;;;;;;;26.30;18.20;;;;;;;6.24;91.54;100273.39;216576;1261;140920;-75
2024/02/15 05:59:56;;;;;;;24.80;16.90;;;;;;;6.25;91.55;100274.75;217065;1257;141299;-75
2024/02/15 06:05:10;;;;;;;26.50;15.70;;;;;;;6.24;91.55;100271.07;216961;1261;140059;-75
2024/02/15 06:10:14;;;;;;;23.60;15.90;;;;;;;6.24;91.26;100274.94;216636;1261;140209;-75
2024/02/15 06:15:20;;;;;;;22.60;16.70;;;;;;;6.26;92.09;100277.61;216920;1261;140297;-73
2024/02/15 06:20:26;;;;;;;26.90;17.50;;;;;;;6.28;91.61;100278.27;216578;1261;140174;-73
2024/02/15 06:25:32;;;;;;;22.00;14.80;;;;;;;6.28;91.51;100284.02;216723;1262;141908;-74
2024/02/15 06:41:23;;;;;;;24.40;16.90;;;;;;;6.33;91.73;100291.74;216869;1260;140334;-71
2024/02/15 06:46:29;;;;;;;23.00;16.90;;;;;;;6.36;91.80;100290.44;216559;1260;141152;-71
2024/02/15 06:51:40;;;;;;;25.80;16.30;;;;;;;6.41;91.80;100298.85;216572;1258;140706;-69
2024/02/15 06:56:54;;;;;;;29.40;15.70;;;;;;;6.46;92.24;100300.20;217287;1262;142415;-68
2024/02/15 07:01:59;;;;;;;20.50;13.30;;;;;;;6.51;91.82;100305.27;216750;1258;141556;-69
2024/02/15 07:07:03;;;;;;;22.00;16.00;;;;;;;6.56;91.75;100305.98;219717;1258;141380;-70
2024/02/15 07:12:09;;;;;;;21.70;14.80;;;;;;;6.69;91.81;100309.65;219667;1257;140385;-70
2024/02/15 07:17:13;;;;;;;25.70;16.80;;;;;;;6.89;92.11;100306.95;219648;1258;140597;-72
2024/02/15 07:22:18;;;;;;;21.30;15.20;;;;;;;7.11;92.16;100312.17;219500;1258;140705;-71
2024/02/15 07:27:26;;;;;;;25.00;15.50;;;;;;;7.29;91.73;100316.16;216837;1261;140362;-71
2024/02/15 07:32:35;;;;;;;23.90;16.00;;;;;;;7.51;91.71;100318.39;217074;1262;140280;-71
2024/02/15 07:37:50;;;;;;;18.90;14.10;;;;;;;7.65;91.47;100319.59;217128;1260;140980;-72
2024/02/15 07:42:58;;;;;;;23.00;14.90;;;;;;;7.73;91.44;100322.99;216598;1262;140675;-70
2024/02/15 07:48:04;;;;;;;18.00;13.80;;;;;;;7.79;90.92;100324.23;217721;1260;140180;-73
2024/02/15 07:53:10;;;;;;;18.40;12.10;;;;;;;7.84;90.79;100320.81;216687;1262;140222;-73
2024/02/15 07:58:22;;;;;;;21.70;15.00;;;;;;;7.83;90.58;100319.84;216868;1262;140338;-71
2024/02/15 08:03:29;;;;;;;18.80;14.30;;;;;;;7.87;90.74;100322.17;216779;1258;140890;-73
2024/02/15 08:08:37;;;;;;;20.30;14.30;;;;;;;7.88;90.63;100322.87;216940;1260;141265;-73
2024/02/15 08:13:45;;;;;;;24.10;15.50;;;;;;;7.95;90.77;100322.34;217005;1258;140599;-71
2024/02/15 08:18:54;;;;;;;21.30;13.30;;;;;;;8.03;90.83;100321.02;217547;1260;140846;-71
2024/02/15 08:24:06;;;;;;;25.60;16.90;;;;;;;8.09;90.71;100318.63;216992;1258;140679;-70
2024/02/15 08:29:13;;;;;;;21.80;13.00;;;;;;;8.19;90.54;100315.89;216442;1262;141227;-69
2024/02/15 08:34:19;;;;;;;20.20;12.80;;;;;;;8.26;90.33;100320.09;217690;1259;140123;-69
2024/02/15 08:39:25;;;;;;;15.70;13.20;;;;;;;8.37;90.60;100321.95;216632;1262;139966;-70
2024/02/15 08:44:33;;;;;;;26.60;15.20;;;;;;;8.46;90.28;100323.61;217546;1258;140898;-71
2024/02/15 08:49:40;;;;;;;21.20;15.90;;;;;;;8.56;90.42;100323.89;219537;1257;142917;-74
2024/02/15 08:54:44;;;;;;;20.40;13.50;;;;;;;8.66;90.22;100324.23;216643;1261;140285;-72
2024/02/15 08:59:48;;;;;;;22.10;15.00;;;;;;;8.75;90.25;100324.38;218465;1257;140565;-71
2024/02/15 09:04:52;;;;;;;22.20;13.20;;;;;;;8.88;89.97;100326.42;219691;1261;140997;-72
2024/02/15 09:10:00;;;;;;;20.30;11.10;;;;;;;9.03;90.18;100328.50;218163;1261;140822;-72
2024/02/15 09:15:04;;;;;;;16.70;11.60;;;;;;;9.19;89.87;100328.12;216811;1262;142183;-69
2024/02/15 09:20:18;;;;;;;18.50;13.10;;;;;;;9.30;89.71;100329.30;217111;1257;141660;-73
2024/02/15 09:25:23;;;;;;;16.30;12.40;;;;;;;9.40;89.73;100327.61;217173;1263;140807;-70
2024/02/15 09:30:27;;;;;;;26.20;15.80;;;;;;;9.55;89.79;100325.92;217268;1260;140429;-72
2024/02/15 09:35:32;;;;;;;23.40;15.10;;;;;;;9.68;89.94;100326.92;217374;1262;140607;-71
2024/02/15 09:40:36;;;;;;;14.20;12.10;;;;;;;9.81;89.70;100335.64;216826;1261;140975;-72
2024/02/15 09:45:40;;;;;;;16.10;12.20;;;;;;;9.82;89.14;100338.90;217046;1257;140262;-74
2024/02/15 09:50:48;;;;;;;17.10;11.60;;;;;;;9.96;89.60;100340.16;217037;1257;140233;-73
2024/02/15 09:55:54;;;;;;;18.10;12.90;;;;;;;10.16;89.51;100338.09;216895;1262;140989;-74
2024/02/15 10:00:58;;;;;;;16.50;11.00;;;;;;;10.35;89.09;100329.45;216834;1263;142081;-72
2024/02/15 10:06:02;;;;;;;19.80;12.00;;;;;;;10.49;88.84;100332.75;217172;1261;140308;-70
2024/02/15 10:11:08;;;;;;;15.40;11.50;;;;;;;10.65;88.77;100331.34;216733;1260;140476;-70
2024/02/15 10:16:24;;;;;;;13.00;9.40;;;;;;;10.81;88.42;100323.65;217249;1258;142337;-69
2024/02/15 10:21:31;;;;;;;15.00;12.10;;;;;;;10.93;87.68;100315.23;216847;1258;140626;-72
2024/02/15 10:26:36;;;;;;;16.90;10.50;;;;;;;11.10;87.93;100313.58;217017;1262;140449;-72
2024/02/15 10:31:55;;;;;;;15.30;10.80;;;;;;;11.27;87.69;100312.27;216958;1262;141354;-72
2024/02/15 10:37:20;;;;;;;12.40;9.00;;;;;;;11.46;87.22;100314.03;216665;1258;140979;-70
2024/02/15 10:42:25;;;;;;;17.60;11.30;;;;;;;11.61;86.94;100310.66;218075;1262;141443;-70
2024/02/15 10:47:30;;;;;;;13.40;10.30;;;;;;;11.75;86.87;100310.54;216874;1258;140599;-73
2024/02/15 10:52:45;;;;;;;9.80;8.10;;;;;;;11.85;86.36;100307.10;216573;1263;141821;-72
2024/02/15 10:57:51;;;;;;;12.60;10.00;;;;;;;11.94;85.98;100306.95;216702;1261;140494;-70
2024/02/15 11:03:02;;;;;;;9.00;7.70;;;;;;;12.11;86.14;100297.43;218067;1258;140949;-71
2024/02/15 11:08:08;;;;;;;12.90;8.80;;;;;;;12.29;85.46;100290.90;217271;1257;209250;-71
2024/02/15 11:13:14;;;;;;;8.20;7.30;;;;;;;12.56;85.55;100284.03;216520;1257;141065;-72
2024/02/15 11:18:45;;;;;;;12.10;7.50;;;;;;;12.76;85.12;100282.23;217090;1258;140107;-73
2024/02/15 11:23:50;;;;;;;11.30;8.60;;;;;;;12.89;84.55;100282.20;216670;1263;142496;-73
2024/02/15 11:28:55;;;;;;;15.80;9.10;;;;;;;12.94;83.99;100278.40;216658;1257;140374;-73
2024/02/15 11:34:46;;;;;;;11.90;8.10;;;;;;;12.91;83.83;100270.89;216551;1258;140407;-73
2024/02/15 11:39:59;;;;;;;7.50;5.80;;;;;;;12.96;83.37;100265.88;216638;1257;140439;-72
2024/02/15 11:45:05;;;;;;;12.70;6.50;;;;;;;13.02;83.38;100259.14;216783;1257;140187;-73
2024/02/15 11:50:14;;;;;;;8.70;4.90;;;;;;;13.17;83.05;100256.33;216814;1258;141472;-73
2024/02/15 11:55:23;;;;;;;6.00;3.30;;;;;;;13.31;82.08;100255.70;216717;1262;140879;-74
2024/02/15 12:22:40;;;;;;;6.80;3.70;;;;;;;13.69;78.89;100245.45;217605;1257;140999;-73
2024/02/15 12:27:46;;;;;;;6.80;4.50;;;;;;;13.65;78.61;100245.65;217064;1262;140879;-73
2024/02/15 12:32:51;;;;;;;5.10;4.60;;;;;;;13.67;78.18;100242.57;216585;1260;141546;-72
2024/02/15 12:37:59;;;;;;;7.50;4.70;;;;;;;13.71;77.95;100238.21;216473;1259;140471;-73
2024/02/15 12:43:08;;;;;;;4.30;3.80;;;;;;;13.66;77.34;100238.59;216588;1263;140738;-72
2024/02/15 12:48:15;;;;;;;6.80;4.10;;;;;;;13.63;77.36;100240.14;216671;1259;140803;-72
2024/02/15 12:53:25;;;;;;;7.60;5.10;;;;;;;13.66;77.30;100230.66;218603;1259;139925;-74
2024/02/15 12:58:35;;;;;;;5.90;5.10;;;;;;;13.65;77.14;100226.74;219590;1259;140484;-73
2024/02/15 13:03:40;;;;;;;5.90;3.90;;;;;;;13.53;76.64;100230.55;217610;1261;140386;-72
2024/02/15 13:08:48;;;;;;;8.90;4.70;;;;;;;13.43;76.55;100223.91;217109;1260;140516;-73
2024/02/15 13:13:54;;;;;;;6.80;4.70;;;;;;;13.39;76.57;100225.28;216805;1261;139902;-73
2024/02/15 13:19:00;;;;;;;5.30;4.50;;;;;;;13.28;76.39;100228.55;216705;1262;140942;-73
2024/02/15 13:24:05;;;;;;;4.90;3.50;;;;;;;13.24;76.39;100224.63;216802;1262;140076;-72
2024/02/15 13:29:11;;;;;;;7.30;4.70;;;;;;;13.24;76.31;100228.10;216685;1258;140555;-73
2024/02/15 13:34:17;;;;;;;4.40;3.20;;;;;;;13.22;76.26;100225.27;216787;1257;140865;-73
2024/02/15 13:39:21;;;;;;;6.10;3.80;;;;;;;13.18;75.94;100224.52;216506;1261;141133;-73
2024/02/15 13:44:26;;;;;;;8.60;5.10;;;;;;;13.07;75.83;100220.23;217233;1257;140854;-73
2024/02/15 13:49:31;;;;;;;7.90;4.60;;;;;;;13.05;75.73;100223.78;216450;1258;140032;-73
2024/02/15 13:54:37;;;;;;;6.90;4.80;;;;;;;13.02;75.58;100220.19;216660;1259;140735;-72
2024/02/15 13:59:41;;;;;;;7.70;6.20;;;;;;;12.86;75.05;100222.54;216822;1257;141300;-71
2024/02/15 14:04:46;;;;;;;6.20;5.20;;;;;;;12.65;74.99;100222.65;217544;1262;140190;-73
2024/02/15 14:09:51;;;;;;;7.30;4.70;;;;;;;12.56;75.30;100218.01;216782;1257;139841;-72
2024/02/15 14:15:05;;;;;;;7.70;5.10;;;;;;;12.50;75.13;100219.66;216706;1262;141010;-72
2024/02/15 14:20:14;;;;;;;7.90;4.80;;;;;;;12.52;75.55;100213.34;216851;1257;140085;-72
2024/02/15 14:25:19;;;;;;;4.70;4.10;;;;;;;12.57;75.64;100217.08;219774;1257;141685;-72
2024/02/15 14:35:47;;;;;;;5.30;3.50;;;;;;;12.55;75.18;100228.15;219480;1257;140807;-72
2024/02/15 14:40:55;;;;;;;7.70;3.70;;;;;;;12.50;75.06;100227.16;217655;1261;141079;-72
2024/02/15 14:46:04;;;;;;;5.80;2.80;;;;;;;12.45;74.96;100231.81;216892;1257;140365;-73
2024/02/15 14:51:15;;;;;;;5.90;4.20;;;;;;;12.44;75.41;100232.64;217072;1257;141701;-72
2024/02/15 14:56:20;;;;;;;8.70;4.70;;;;;;;12.39;75.39;100228.98;219599;1257;140321;-72
2024/02/15 15:01:29;;;;;;;5.00;3.00;;;;;;;12.27;74.81;100231.41;216612;1257;140302;-72
2024/02/15 15:17:22;;;;;;;5.70;3.40;;;;;;;11.94;75.17;100237.06;217864;1257;140847;-71
2024/02/15 15:22:26;;;;;;;5.70;3.80;;;;;;;11.92;75.49;100243.65;216690;1257;141530;-72
2024/02/15 15:27:31;;;;;;;11.50;4.80;;;;;;;11.89;75.60;100243.84;216766;1258;141110;-72
2024/02/15 15:32:36;;;;;;;4.20;3.80;;;;;;;11.85;75.49;100248.04;216802;1257;140381;-71
2024/02/15 15:37:39;;;;;;;6.60;4.20;;;;;;;11.83;75.68;100249.52;216726;1260;140744;-72
2024/02/15 15:42:45;;;;;;;12.20;4.70;;;;;;;11.71;75.55;100252.62;216533;1257;140122;-71
2024/02/15 15:47:51;;;;;;;7.50;5.90;;;;;;;11.65;75.80;100261.74;216508;1257;140554;-71
2024/02/15 15:52:58;;;;;;;10.70;6.30;;;;;;;11.59;75.93;100262.26;216477;1262;141250;-72
2024/02/15 15:58:04;;;;;;;6.90;5.70;;;;;;;11.53;75.94;100265.19;216769;1261;140210;-71
2024/02/15 16:03:08;;;;;;;10.40;5.70;;;;;;;11.47;75.92;100267.64;216714;1259;140669;-71
2024/02/15 16:08:12;;;;;;;8.30;6.50;;;;;;;11.43;76.06;100266.42;216790;1257;140879;-71
2024/02/15 16:13:17;;;;;;;12.20;6.40;;;;;;;11.36;76.24;100270.77;218494;1258;140518;-70
2024/02/15 16:18:23;;;;;;;7.90;6.10;;;;;;;11.25;75.74;100269.64;218184;1257;140539;-71
2024/02/15 16:23:28;;;;;;;10.90;7.50;;;;;;;11.15;76.22;100271.70;217846;1257;140000;-71
2024/02/15 16:28:31;;;;;;;12.20;8.90;;;;;;;11.10;76.03;100274.99;216982;1261;141179;-71
2024/02/15 16:33:35;;;;;;;17.80;9.70;;;;;;;11.06;76.62;100279.15;218962;1257;141346;-71
2024/02/15 16:38:40;;;;;;;15.40;9.90;;;;;;;11.05;76.75;100280.19;219614;1257;351153;-71
2024/02/15 16:43:46;;;;;;;13.10;8.20;;;;;;;11.05;76.57;100277.23;219726;1257;141222;-71
2024/02/15 16:48:55;;;;;;;23.40;9.90;;;;;;;11.02;76.80;100282.38;217183;1258;142125;-71
2024/02/15 16:54:01;;;;;;;12.40;7.80;;;;;;;10.99;76.73;100284.45;216861;1257;141469;-70
2024/02/15 16:59:04;;;;;;;14.90;7.70;;;;;;;10.97;76.95;100289.88;216758;1257;140031;-71
2024/02/15 17:04:09;;;;;;;23.40;11.90;;;;;;;10.93;77.16;100292.38;216623;1257;141269;-70
2024/02/15 17:09:15;;;;;;;15.80;10.90;;;;;;;10.90;77.30;100299.88;216718;1256;141604;-71
2024/02/15 17:14:19;;;;;;;16.20;10.30;;;;;;;10.91;77.45;100303.94;216536;1259;140265;-70
2024/02/15 17:19:22;;;;;;;13.20;8.30;;;;;;;10.90;77.29;100306.93;216672;1261;141325;-71
2024/02/15 17:24:26;;;;;;;14.10;9.20;;;;;;;10.85;77.53;100310.89;217117;1257;140452;-70
2024/02/15 17:29:30;;;;;;;15.10;10.20;;;;;;;10.81;77.36;100319.71;216582;1261;142686;-71
2024/02/15 17:34:34;;;;;;;20.20;9.40;;;;;;;10.78;77.46;100323.75;216530;1257;141202;-70
2024/02/15 17:39:39;;;;;;;15.00;9.00;;;;;;;10.77;77.41;100324.39;216604;1257;141715;-71
2024/02/15 17:44:44;;;;;;;18.00;9.00;;;;;;;10.72;77.53;100328.79;216556;1262;140912;-71
2024/02/15 17:49:50;;;;;;;14.60;9.20;;;;;;;10.71;77.91;100329.74;216495;1261;140993;-71
2024/02/15 17:54:54;;;;;;;13.20;9.00;;;;;;;10.66;77.73;100336.45;216614;1262;141650;-71
2024/02/15 18:00:00;;;;;;;18.00;9.90;;;;;;;10.64;77.96;100337.34;217822;1260;141147;-72
2024/02/15 18:05:07;;;;;;;14.50;9.90;;;;;;;10.63;78.10;100336.56;217686;1257;142663;-71
2024/02/15 18:10:14;;;;;;;28.20;13.60;;;;;;;10.60;78.23;100329.38;219182;1257;140805;-71
2024/02/15 18:15:23;;;;;;;21.70;13.70;;;;;;;10.57;78.22;100328.87;216811;1257;140744;-70
2024/02/15 18:20:29;;;;;;;28.40;13.80;;;;;;;10.57;78.32;100328.49;217663;1257;140996;-71
2024/02/15 18:25:35;;;;;;;20.80;11.80;;;;;;;10.58;78.46;100324.80;218962;1257;142262;-71
2024/02/15 18:30:42;;;;;;;22.90;11.90;;;;;;;10.57;78.53;100321.57;219549;1257;142261;-70
2024/02/15 18:35:47;;;;;;;22.10;12.90;;;;;;;10.58;78.77;100317.95;217039;1260;140435;-71
2024/02/15 18:40:52;;;;;;;19.90;11.90;;;;;;;10.57;78.87;100319.20;216617;1259;141870;-71
2024/02/15 18:45:57;;;;;;;17.20;10.60;;;;;;;10.52;78.64;100318.90;216522;1259;140530;-72
2024/02/15 18:51:01;;;;;;;20.50;12.70;;;;;;;10.46;78.79;100315.18;216550;1260;140695;-72
2024/02/15 18:56:14;;;;;;;16.90;11.40;;;;;;;10.42;79.00;100314.60;216696;1259;140969;-71
2024/02/15 19:01:17;;;;;;;20.90;13.70;;;;;;;10.45;79.40;100311.21;216587;1259;140347;-72
2024/02/15 19:06:22;;;;;;;19.30;13.00;;;;;;;10.46;79.48;100311.08;216420;1262;141826;-73
2024/02/15 19:11:26;;;;;;;23.70;12.30;;;;;;;10.44;79.36;100307.77;216479;1259;140731;-72
2024/02/15 19:16:32;;;;;;;18.60;12.80;;;;;;;10.37;79.39;100305.80;216881;1259;140295;-72
2024/02/15 19:21:38;;;;;;;26.90;15.30;;;;;;;10.30;79.64;100301.86;216541;1262;140373;-71
2024/02/15 19:26:42;;;;;;;21.60;13.50;;;;;;;10.24;79.60;100294.73;216484;1260;141198;-72
2024/02/15 19:31:47;;;;;;;55.30;17.10;;;;;;;10.18;79.78;100299.27;216521;1259;142387;-72
2024/02/15 19:36:51;;;;;;;29.20;15.60;;;;;;;10.11;79.90;100294.02;216659;1258;140713;-71
2024/02/15 19:42:08;;;;;;;31.70;19.00;;;;;;;10.05;80.18;100294.39;216549;1259;142429;-71
2024/02/15 19:47:14;;;;;;;28.90;17.30;;;;;;;10.04;80.60;100294.31;216493;1262;141329;-72
2024/02/15 19:52:20;;;;;;;31.40;18.80;;;;;;;10.07;80.74;100294.82;216485;1262;143087;-72
2024/02/15 19:57:23;;;;;;;28.00;18.50;;;;;;;10.09;80.76;100296.83;216552;1259;140452;-71
2024/02/15 20:02:28;;;;;;;29.30;18.60;;;;;;;10.09;80.90;100308.02;216737;1259;140324;-72
2024/02/15 20:07:36;;;;;;;32.30;18.00;;;;;;;10.06;81.04;100310.08;218384;1258;141144;-72
2024/02/15 20:12:41;;;;;;;28.70;16.80;;;;;;;10.01;81.01;100309.83;218895;1258;141157;-72
2024/02/15 20:17:47;;;;;;;36.30;20.20;;;;;;;9.93;80.90;100315.33;219624;1259;141650;-71
2024/02/15 20:22:51;;;;;;;30.40;16.30;;;;;;;9.88;80.91;100309.62;219578;1259;140923;-72
2024/02/15 20:27:55;;;;;;;30.90;19.20;;;;;;;9.82;80.94;100306.71;219607;1257;141135;-72
2024/02/15 20:33:01;;;;;;;31.50;17.60;;;;;;;9.77;81.13;100300.61;217891;1257;140566;-71
2024/02/15 20:38:05;;;;;;;29.70;18.60;;;;;;;9.68;81.21;100293.84;216883;1261;140514;-71
2024/02/15 20:43:11;;;;;;;31.90;18.10;;;;;;;9.60;81.31;100294.16;216900;1261;140530;-72
2024/02/15 20:48:16;;;;;;;22.80;16.40;;;;;;;9.56;81.69;100290.98;216528;1261;140600;-72
2024/02/15 20:53:22;;;;;;;24.80;13.70;;;;;;;9.56;81.80;100287.35;216937;1258;141360;-71
2024/02/15 20:58:26;;;;;;;22.50;14.40;;;;;;;9.54;81.91;100283.60;216565;1261;140766;-71
2024/02/15 21:03:30;;;;;;;24.10;12.30;;;;;;;9.52;82.15;100281.27;216918;1258;142116;-70
2024/02/15 21:08:37;;;;;;;16.90;11.40;;;;;;;9.51;82.45;100280.53;216689;1261;141105;-70
2024/02/15 21:13:44;;;;;;;17.00;11.20;;;;;;;9.52;82.58;100280.81;216968;1261;140345;-71
2024/02/15 21:18:52;;;;;;;18.10;11.70;;;;;;;9.53;82.46;100282.78;216729;1258;140243;-70
2024/02/15 21:23:58;;;;;;;16.10;9.40;;;;;;;9.50;82.62;100285.09;218178;1259;140133;-71
2024/02/15 21:29:04;;;;;;;13.90;9.30;;;;;;;9.50;82.76;100283.33;216304;1260;140861;-70
2024/02/15 21:34:09;;;;;;;17.50;11.60;;;;;;;9.51;82.83;100281.77;217133;1258;140915;-70
2024/02/15 21:39:13;;;;;;;16.30;10.20;;;;;;;9.49;82.70;100281.21;217199;1261;140233;-70
2024/02/15 21:44:16;;;;;;;18.40;11.80;;;;;;;9.42;82.64;100277.25;217050;1261;140160;-69
2024/02/15 21:49:23;;;;;;;26.00;13.50;;;;;;;9.35;82.68;100279.83;216968;1258;140495;-74
2024/02/15 21:54:27;;;;;;;27.80;10.80;;;;;;;9.27;82.67;100278.85;217112;1261;141141;-74
2024/02/15 21:59:33;;;;;;;28.70;14.20;;;;;;;9.14;82.75;100280.55;217320;1259;139969;-72
2024/02/15 22:04:38;;;;;;;29.00;16.30;;;;;;;9.03;82.84;100282.60;217081;1261;140322;-72
2024/02/15 22:09:42;;;;;;;28.20;16.90;;;;;;;8.92;82.96;100284.89;216691;1261;141132;-72
2024/02/15 22:14:47;;;;;;;29.60;15.30;;;;;;;8.81;83.09;100281.64;217114;1260;140145;-73
2024/02/15 22:19:51;;;;;;;31.10;18.70;;;;;;;8.73;83.05;100282.02;218124;1261;160221;-71
2024/02/15 22:24:55;;;;;;;30.10;19.80;;;;;;;8.66;83.35;100279.25;217298;1260;140576;-71
2024/02/15 22:30:00;;;;;;;24.00;15.50;;;;;;;8.57;83.38;100284.06;217985;1261;140887;-70
2024/02/15 22:35:04;;;;;;;32.80;18.90;;;;;;;8.49;83.78;100288.39;217043;1260;141633;-70
2024/02/15 22:40:09;;;;;;;29.70;18.00;;;;;;;8.43;83.90;100285.89;216695;1261;141008;-72
2024/02/15 22:45:13;;;;;;;23.50;14.80;;;;;;;8.38;83.99;100285.70;216941;1260;140524;-72
2024/02/15 22:50:18;;;;;;;24.80;15.20;;;;;;;8.36;84.41;100283.61;216894;1261;140004;-73
2024/02/15 22:55:25;;;;;;;27.60;16.10;;;;;;;8.36;84.78;100287.90;217480;1259;141186;-71
2024/02/15 23:00:29;;;;;;;29.60;18.20;;;;;;;8.36;84.66;100282.39;217430;1261;141293;-74
2024/02/15 23:05:34;;;;;;;29.40;18.30;;;;;;;8.34;84.80;100281.60;218333;1260;141400;-70
2024/02/15 23:10:38;;;;;;;24.90;14.70;;;;;;;8.30;84.92;100284.94;216893;1261;140632;-70
2024/02/15 23:15:43;;;;;;;24.90;16.90;;;;;;;8.29;85.11;100280.11;217292;1257;140905;-71
2024/02/15 23:20:47;;;;;;;29.50;17.70;;;;;;;8.29;85.09;100282.65;217177;1261;142079;-71
2024/02/15 23:25:51;;;;;;;26.10;16.60;;;;;;;8.27;85.26;100285.51;216691;1259;140914;-72
2024/02/15 23:30:56;;;;;;;27.40;15.90;;;;;;;8.24;85.44;100276.05;216731;1262;140330;-72
2024/02/15 23:41:24;;;;;;;29.60;17.50;;;;;;;8.14;85.66;100278.67;217175;1260;140765;-71
2024/02/15 23:46:28;;;;;;;27.00;16.90;;;;;;;8.06;85.64;100275.08;216794;1261;142018;-71
2024/02/15 23:51:32;;;;;;;34.80;18.80;;;;;;;7.98;85.77;100275.11;216734;1261;140849;-70